RYR45QN LBSF-LOWW
Flight info
| Callsign | RYR45QN |
|---|---|
| Flight time | 1h 13m |
| Altitude | 34000 |
| Route | OGOTA3T/27 OGOTA T228 UTEKA DCT DONIV DCT PARAK DCT BALUX DCT TORNO DCT NATEX NATEX2W |
| Aircraft | A320/M-SDE3FGHIRWY/LB1 |
Departure
| Time | 2026-04-22 18:56 |
|---|---|
| Airport | Sofia Airport (LBSF) |
Arrival
| Time | 2026-04-22 20:09 |
|---|---|
| Airport | Vienna International Airport (LOWW) |
| Time | Latitude | Longitude | Altitude | Speed | Heading |
|---|---|---|---|---|---|
| 2026-04-22 18:08 | 42.68991 | 23.40923 | 1750 ft | 0 kts | 162° |
| 2026-04-22 18:46 | 42.68980 | 23.40928 | 1747 ft | 4 kts | 162° |
| 2026-04-22 18:46 | 42.68953 | 23.40940 | 1744 ft | 6 kts | 161° |
| 2026-04-22 18:46 | 42.68939 | 23.41003 | 1749 ft | 10 kts | 73° |
| 2026-04-22 18:46 | 42.68966 | 23.41117 | 1742 ft | 14 kts | 72° |
| 2026-04-22 18:47 | 42.69025 | 23.41224 | 1745 ft | 15 kts | 25° |
| 2026-04-22 18:47 | 42.69127 | 23.41188 | 1748 ft | 16 kts | 341° |
| 2026-04-22 18:47 | 42.69239 | 23.41147 | 1747 ft | 17 kts | 6° |
| 2026-04-22 18:47 | 42.69359 | 23.41185 | 1745 ft | 19 kts | 12° |
| 2026-04-22 18:48 | 42.69478 | 23.41232 | 1742 ft | 15 kts | 46° |
| 2026-04-22 18:48 | 42.69480 | 23.41374 | 1747 ft | 16 kts | 95° |
| 2026-04-22 18:48 | 42.69471 | 23.41535 | 1750 ft | 18 kts | 94° |
| 2026-04-22 18:48 | 42.69460 | 23.41713 | 1750 ft | 20 kts | 95° |
| 2026-04-22 18:49 | 42.69448 | 23.41907 | 1744 ft | 21 kts | 95° |
| 2026-04-22 18:49 | 42.69435 | 23.42115 | 1746 ft | 23 kts | 95° |
| 2026-04-22 18:49 | 42.69422 | 23.42339 | 1743 ft | 24 kts | 94° |
| 2026-04-22 18:49 | 42.69409 | 23.42576 | 1749 ft | 26 kts | 94° |
| 2026-04-22 18:50 | 42.69394 | 23.42825 | 1752 ft | 27 kts | 94° |
| 2026-04-22 18:50 | 42.69379 | 23.43075 | 1752 ft | 27 kts | 95° |
| 2026-04-22 18:50 | 42.69364 | 23.43326 | 1752 ft | 27 kts | 95° |
| 2026-04-22 18:50 | 42.69349 | 23.43558 | 1743 ft | 25 kts | 95° |
| 2026-04-22 18:51 | 42.69336 | 23.43789 | 1763 ft | 23 kts | 94° |
| 2026-04-22 18:51 | 42.69347 | 23.43924 | 1758 ft | 6 kts | 49° |
| 2026-04-22 18:51 | 42.69354 | 23.43932 | 1764 ft | 0 kts | 38° |
| 2026-04-22 18:52 | 42.69364 | 23.43940 | 1760 ft | 3 kts | 28° |
| 2026-04-22 18:53 | 42.69398 | 23.43947 | 1768 ft | 6 kts | 5° |
| 2026-04-22 18:53 | 42.69406 | 23.43948 | 1767 ft | 0 kts | 5° |
| 2026-04-22 18:54 | 42.69418 | 23.43949 | 1767 ft | 4 kts | 5° |
| 2026-04-22 18:54 | 42.69472 | 23.43955 | 1771 ft | 11 kts | 4° |
| 2026-04-22 18:54 | 42.69519 | 23.43878 | 1766 ft | 13 kts | 275° |
| 2026-04-22 18:54 | 42.69520 | 23.43852 | 1765 ft | 0 kts | 275° |
| 2026-04-22 18:55 | 42.69524 | 23.43803 | 1760 ft | 17 kts | 275° |
| 2026-04-22 18:55 | 42.69552 | 23.43342 | 1748 ft | 81 kts | 275° |
| 2026-04-22 18:55 | 42.69611 | 23.42333 | 1750 ft | 131 kts | 274° |
| 2026-04-22 18:56 | 42.69697 | 23.40902 | 1765 ft | 171 kts | 275° |
| 2026-04-22 18:56 | 42.69789 | 23.39314 | 2366 ft | 165 kts | 275° |
| 2026-04-22 18:56 | 42.70027 | 23.37806 | 2931 ft | 166 kts | 300° |
| 2026-04-22 18:56 | 42.70838 | 23.36620 | 3185 ft | 184 kts | 323° |
| 2026-04-22 18:57 | 42.71952 | 23.35670 | 3638 ft | 194 kts | 330° |
| 2026-04-22 18:57 | 42.73236 | 23.34993 | 4059 ft | 206 kts | 349° |
| 2026-04-22 18:57 | 42.74703 | 23.34670 | 4421 ft | 223 kts | 354° |
| 2026-04-22 18:57 | 42.76296 | 23.34333 | 4889 ft | 237 kts | 346° |
| 2026-04-22 18:58 | 42.77724 | 23.33217 | 5622 ft | 242 kts | 315° |
| 2026-04-22 18:58 | 42.78793 | 23.31432 | 6405 ft | 246 kts | 314° |
| 2026-04-22 18:58 | 42.79970 | 23.29661 | 6880 ft | 259 kts | 315° |
| 2026-04-22 18:58 | 42.81219 | 23.27862 | 6975 ft | 263 kts | 315° |
| 2026-04-22 18:59 | 42.82500 | 23.26063 | 7002 ft | 265 kts | 316° |
| 2026-04-22 18:59 | 42.83793 | 23.24263 | 7003 ft | 266 kts | 316° |
| 2026-04-22 18:59 | 42.85086 | 23.22462 | 7004 ft | 266 kts | 316° |
| 2026-04-22 18:59 | 42.86381 | 23.20659 | 7009 ft | 266 kts | 316° |
| 2026-04-22 19:00 | 42.87676 | 23.18859 | 7000 ft | 266 kts | 316° |
| 2026-04-22 19:00 | 42.89129 | 23.17300 | 7265 ft | 269 kts | 335° |
| 2026-04-22 19:00 | 42.90918 | 23.16616 | 8125 ft | 269 kts | 352° |
| 2026-04-22 19:00 | 42.92776 | 23.16295 | 8979 ft | 271 kts | 353° |
| 2026-04-22 19:01 | 42.94657 | 23.15995 | 9781 ft | 274 kts | 353° |
| 2026-04-22 19:01 | 42.96574 | 23.15700 | 10373 ft | 285 kts | 353° |
| 2026-04-22 19:01 | 42.98624 | 23.15384 | 10571 ft | 307 kts | 352° |
| 2026-04-22 19:01 | 43.00795 | 23.15052 | 11017 ft | 318 kts | 352° |
| 2026-04-22 19:02 | 43.03014 | 23.14714 | 11652 ft | 323 kts | 352° |
| 2026-04-22 19:02 | 43.05260 | 23.14373 | 12360 ft | 326 kts | 352° |
| 2026-04-22 19:02 | 43.07525 | 23.14008 | 13020 ft | 329 kts | 348° |
| 2026-04-22 19:02 | 43.09685 | 23.12998 | 13673 ft | 330 kts | 329° |
| 2026-04-22 19:03 | 43.11642 | 23.11319 | 14304 ft | 333 kts | 326° |
| 2026-04-22 19:03 | 43.13591 | 23.09590 | 14905 ft | 335 kts | 326° |
| 2026-04-22 19:03 | 43.15552 | 23.07836 | 15502 ft | 338 kts | 325° |
| 2026-04-22 19:03 | 43.17531 | 23.06060 | 16082 ft | 341 kts | 325° |
| 2026-04-22 19:04 | 43.19519 | 23.04276 | 16677 ft | 344 kts | 325° |
| 2026-04-22 19:04 | 43.21532 | 23.02474 | 17286 ft | 346 kts | 325° |
| 2026-04-22 19:04 | 43.23556 | 23.00663 | 17885 ft | 348 kts | 324° |
| 2026-04-22 19:04 | 43.25593 | 22.98838 | 18488 ft | 351 kts | 324° |
| 2026-04-22 19:05 | 43.27646 | 22.96996 | 19028 ft | 354 kts | 324° |
| 2026-04-22 19:05 | 43.29717 | 22.95135 | 19579 ft | 357 kts | 324° |
| 2026-04-22 19:05 | 43.31806 | 22.93255 | 20117 ft | 360 kts | 324° |
| 2026-04-22 19:05 | 43.33911 | 22.91361 | 20631 ft | 363 kts | 324° |
| 2026-04-22 19:06 | 43.36033 | 22.89448 | 21167 ft | 366 kts | 323° |
| 2026-04-22 19:06 | 43.38147 | 22.87542 | 21685 ft | 369 kts | 323° |
| 2026-04-22 19:06 | 43.40298 | 22.85606 | 22194 ft | 371 kts | 323° |
| 2026-04-22 19:07 | 43.44659 | 22.81688 | 23234 ft | 377 kts | 324° |
| 2026-04-22 19:07 | 43.46867 | 22.79694 | 23668 ft | 381 kts | 324° |
| 2026-04-22 19:07 | 43.49093 | 22.77678 | 24068 ft | 384 kts | 324° |
| 2026-04-22 19:07 | 43.51335 | 22.75647 | 24481 ft | 387 kts | 324° |
| 2026-04-22 19:08 | 43.53586 | 22.73605 | 24888 ft | 389 kts | 324° |
| 2026-04-22 19:08 | 43.55852 | 22.71549 | 25272 ft | 391 kts | 324° |
| 2026-04-22 19:08 | 43.58131 | 22.69479 | 25658 ft | 393 kts | 324° |
| 2026-04-22 19:08 | 43.60421 | 22.67395 | 26046 ft | 396 kts | 324° |
| 2026-04-22 19:09 | 43.62726 | 22.65297 | 26416 ft | 398 kts | 324° |
| 2026-04-22 19:09 | 43.65041 | 22.63192 | 26778 ft | 400 kts | 324° |
| 2026-04-22 19:09 | 43.66586 | 22.61786 | 27015 ft | 402 kts | 324° |
| 2026-04-22 19:09 | 43.69717 | 22.58932 | 27483 ft | 406 kts | 325° |
| 2026-04-22 19:10 | 43.72082 | 22.56777 | 27791 ft | 409 kts | 325° |
| 2026-04-22 19:10 | 43.74464 | 22.54602 | 28125 ft | 411 kts | 324° |
| 2026-04-22 19:10 | 43.76858 | 22.52408 | 28480 ft | 414 kts | 325° |
| 2026-04-22 19:10 | 43.79271 | 22.50200 | 28794 ft | 417 kts | 325° |
| 2026-04-22 19:11 | 43.81691 | 22.47984 | 29120 ft | 419 kts | 325° |
| 2026-04-22 19:11 | 43.84129 | 22.45749 | 29453 ft | 421 kts | 325° |
| 2026-04-22 19:11 | 43.86580 | 22.43499 | 29781 ft | 424 kts | 325° |
| 2026-04-22 19:11 | 43.89044 | 22.41234 | 30111 ft | 426 kts | 325° |
| 2026-04-22 19:12 | 43.91429 | 22.38794 | 30410 ft | 426 kts | 317° |
| 2026-04-22 19:12 | 43.93515 | 22.35960 | 30788 ft | 425 kts | 314° |
| 2026-04-22 19:12 | 43.95599 | 22.32971 | 31098 ft | 426 kts | 314° |
| 2026-04-22 19:12 | 43.97662 | 22.30013 | 31440 ft | 427 kts | 314° |
| 2026-04-22 19:13 | 43.99700 | 22.27091 | 31813 ft | 426 kts | 314° |
| 2026-04-22 19:13 | 44.01792 | 22.24085 | 32059 ft | 427 kts | 313° |
| 2026-04-22 19:13 | 44.03827 | 22.21159 | 32093 ft | 426 kts | 313° |
| 2026-04-22 19:14 | 44.07941 | 22.15236 | 32089 ft | 425 kts | 313° |
| 2026-04-22 19:14 | 44.12052 | 22.09310 | 32097 ft | 425 kts | 313° |
| 2026-04-22 19:15 | 44.15486 | 22.04336 | 32097 ft | 426 kts | 314° |
| 2026-04-22 19:15 | 44.19565 | 21.98427 | 32098 ft | 425 kts | 314° |
| 2026-04-22 19:16 | 44.23688 | 21.92435 | 32114 ft | 427 kts | 314° |
| 2026-04-22 19:16 | 44.27786 | 21.86465 | 32109 ft | 429 kts | 314° |
| 2026-04-22 19:17 | 44.31907 | 21.80452 | 32113 ft | 429 kts | 314° |
| 2026-04-22 19:17 | 44.36034 | 21.74423 | 32112 ft | 429 kts | 314° |
| 2026-04-22 19:18 | 44.40154 | 21.68388 | 32116 ft | 429 kts | 314° |
| 2026-04-22 19:18 | 44.44272 | 21.62345 | 32119 ft | 429 kts | 314° |
| 2026-04-22 19:19 | 44.48392 | 21.56296 | 32122 ft | 429 kts | 314° |
| 2026-04-22 19:19 | 44.52505 | 21.50221 | 32127 ft | 430 kts | 315° |
| 2026-04-22 19:20 | 44.56596 | 21.44160 | 32120 ft | 431 kts | 315° |
| 2026-04-22 19:20 | 44.60720 | 21.38049 | 32119 ft | 431 kts | 315° |
| 2026-04-22 19:21 | 44.64847 | 21.31933 | 32133 ft | 431 kts | 315° |
| 2026-04-22 19:21 | 44.68964 | 21.25803 | 32118 ft | 431 kts | 315° |
| 2026-04-22 19:22 | 44.73074 | 21.19684 | 32126 ft | 430 kts | 316° |
| 2026-04-22 19:22 | 44.77856 | 21.14751 | 32136 ft | 427 kts | 333° |
| 2026-04-22 19:23 | 44.83116 | 21.10878 | 32142 ft | 427 kts | 333° |
| 2026-04-22 19:23 | 44.88380 | 21.06975 | 32137 ft | 427 kts | 333° |
| 2026-04-22 19:24 | 44.93633 | 21.03068 | 32127 ft | 427 kts | 333° |
| 2026-04-22 19:24 | 44.98883 | 20.99159 | 32136 ft | 426 kts | 333° |
| 2026-04-22 19:25 | 45.04123 | 20.95248 | 32134 ft | 426 kts | 333° |
| 2026-04-22 19:25 | 45.09373 | 20.91318 | 32147 ft | 427 kts | 333° |
| 2026-04-22 19:26 | 45.14617 | 20.87385 | 32146 ft | 427 kts | 333° |
| 2026-04-22 19:26 | 45.17252 | 20.85408 | 32488 ft | 427 kts | 333° |
| 2026-04-22 19:26 | 45.19877 | 20.83438 | 32898 ft | 426 kts | 333° |
| 2026-04-22 19:26 | 45.22497 | 20.81468 | 33312 ft | 425 kts | 333° |
| 2026-04-22 19:27 | 45.25108 | 20.79504 | 33717 ft | 425 kts | 333° |
| 2026-04-22 19:27 | 45.27724 | 20.77537 | 34066 ft | 426 kts | 333° |
| 2026-04-22 19:27 | 45.30343 | 20.75557 | 34139 ft | 426 kts | 333° |
| 2026-04-22 19:28 | 45.35525 | 20.71631 | 34144 ft | 425 kts | 333° |
| 2026-04-22 19:28 | 45.40743 | 20.67678 | 34144 ft | 425 kts | 333° |
| 2026-04-22 19:29 | 45.45957 | 20.63718 | 34144 ft | 425 kts | 333° |
| 2026-04-22 19:29 | 45.51169 | 20.59756 | 34148 ft | 424 kts | 333° |
| 2026-04-22 19:30 | 45.55501 | 20.56457 | 34145 ft | 425 kts | 333° |
| 2026-04-22 19:30 | 45.61593 | 20.51801 | 34141 ft | 425 kts | 333° |
| 2026-04-22 19:31 | 45.66810 | 20.47813 | 34149 ft | 425 kts | 333° |
| 2026-04-22 19:31 | 45.72022 | 20.43816 | 34155 ft | 425 kts | 333° |
| 2026-04-22 19:32 | 45.77236 | 20.39809 | 34138 ft | 425 kts | 333° |
| 2026-04-22 19:32 | 45.82458 | 20.35790 | 34139 ft | 426 kts | 333° |
| 2026-04-22 19:33 | 45.87635 | 20.31782 | 34138 ft | 426 kts | 333° |
| 2026-04-22 19:33 | 45.92853 | 20.27741 | 34138 ft | 426 kts | 333° |
| 2026-04-22 19:34 | 45.98079 | 20.23695 | 34138 ft | 427 kts | 333° |
| 2026-04-22 19:34 | 46.03303 | 20.19640 | 34130 ft | 427 kts | 334° |
| 2026-04-22 19:35 | 46.08536 | 20.15563 | 34131 ft | 428 kts | 333° |
| 2026-04-22 19:35 | 46.13768 | 20.11473 | 34139 ft | 428 kts | 333° |
| 2026-04-22 19:36 | 46.18995 | 20.07370 | 34130 ft | 428 kts | 333° |
| 2026-04-22 19:36 | 46.24201 | 20.03204 | 34138 ft | 428 kts | 333° |
| 2026-04-22 19:37 | 46.29407 | 19.98995 | 34130 ft | 429 kts | 333° |
| 2026-04-22 19:37 | 46.34616 | 19.94788 | 34139 ft | 429 kts | 333° |
| 2026-04-22 19:38 | 46.39835 | 19.90584 | 34140 ft | 429 kts | 333° |
| 2026-04-22 19:38 | 46.45018 | 19.86404 | 34145 ft | 429 kts | 333° |
| 2026-04-22 19:39 | 46.50234 | 19.82186 | 34138 ft | 429 kts | 334° |
| 2026-04-22 19:39 | 46.55451 | 19.77955 | 34142 ft | 430 kts | 334° |
| 2026-04-22 19:40 | 46.60674 | 19.73710 | 34128 ft | 430 kts | 334° |
| 2026-04-22 19:40 | 46.65892 | 19.69447 | 34134 ft | 430 kts | 334° |
| 2026-04-22 19:41 | 46.71112 | 19.65175 | 34134 ft | 430 kts | 334° |
| 2026-04-22 19:41 | 46.76341 | 19.60893 | 34134 ft | 431 kts | 334° |
| 2026-04-22 19:42 | 46.81564 | 19.56609 | 34131 ft | 431 kts | 334° |
| 2026-04-22 19:42 | 46.86789 | 19.52304 | 34116 ft | 431 kts | 334° |
| 2026-04-22 19:43 | 46.94624 | 19.45830 | 34127 ft | 431 kts | 334° |
| 2026-04-22 19:43 | 46.99848 | 19.41512 | 34115 ft | 431 kts | 335° |
| 2026-04-22 19:44 | 47.05077 | 19.37179 | 34123 ft | 431 kts | 335° |
| 2026-04-22 19:44 | 47.10307 | 19.32835 | 34123 ft | 432 kts | 335° |
| 2026-04-22 19:45 | 47.15496 | 19.28516 | 34113 ft | 432 kts | 335° |
| 2026-04-22 19:45 | 47.20725 | 19.24156 | 34119 ft | 432 kts | 335° |
| 2026-04-22 19:46 | 47.25934 | 19.19799 | 33884 ft | 426 kts | 335° |
| 2026-04-22 19:46 | 47.28491 | 19.17647 | 33609 ft | 421 kts | 335° |
| 2026-04-22 19:46 | 47.30989 | 19.15414 | 33335 ft | 421 kts | 329° |
| 2026-04-22 19:47 | 47.33228 | 19.12593 | 33064 ft | 426 kts | 319° |
| 2026-04-22 19:47 | 47.35094 | 19.09157 | 32794 ft | 432 kts | 307° |
| 2026-04-22 19:47 | 47.36103 | 19.06537 | 32605 ft | 434 kts | 300° |
| 2026-04-22 19:47 | 47.37794 | 19.01157 | 31943 ft | 433 kts | 300° |
| 2026-04-22 19:48 | 47.39056 | 18.97131 | 31472 ft | 431 kts | 300° |
| 2026-04-22 19:48 | 47.40313 | 18.93124 | 30985 ft | 430 kts | 300° |
| 2026-04-22 19:48 | 47.41569 | 18.89114 | 30509 ft | 430 kts | 300° |
| 2026-04-22 19:48 | 47.42819 | 18.85110 | 29990 ft | 430 kts | 300° |
| 2026-04-22 19:49 | 47.44064 | 18.81105 | 29526 ft | 427 kts | 300° |
| 2026-04-22 19:49 | 47.45300 | 18.77125 | 29062 ft | 425 kts | 300° |
| 2026-04-22 19:49 | 47.46529 | 18.73160 | 28616 ft | 422 kts | 300° |
| 2026-04-22 19:49 | 47.47730 | 18.69276 | 28177 ft | 420 kts | 300° |
| 2026-04-22 19:50 | 47.48940 | 18.65352 | 27718 ft | 418 kts | 300° |
| 2026-04-22 19:50 | 47.50142 | 18.61453 | 27305 ft | 416 kts | 300° |
| 2026-04-22 19:50 | 47.51341 | 18.57565 | 26861 ft | 414 kts | 300° |
| 2026-04-22 19:50 | 47.52532 | 18.53700 | 26423 ft | 413 kts | 300° |
| 2026-04-22 19:51 | 47.53714 | 18.49834 | 25988 ft | 412 kts | 298° |
| 2026-04-22 19:51 | 47.54664 | 18.45814 | 25553 ft | 414 kts | 292° |
| 2026-04-22 19:51 | 47.55531 | 18.41751 | 25114 ft | 413 kts | 292° |
| 2026-04-22 19:51 | 47.56385 | 18.37698 | 24672 ft | 412 kts | 292° |
| 2026-04-22 19:52 | 47.57229 | 18.33656 | 24246 ft | 410 kts | 292° |
| 2026-04-22 19:52 | 47.58078 | 18.29631 | 23816 ft | 408 kts | 292° |
| 2026-04-22 19:52 | 47.58930 | 18.25628 | 23299 ft | 406 kts | 292° |
| 2026-04-22 19:52 | 47.59781 | 18.21642 | 22794 ft | 405 kts | 292° |
| 2026-04-22 19:53 | 47.60626 | 18.17682 | 22305 ft | 403 kts | 292° |
| 2026-04-22 19:53 | 47.61464 | 18.13731 | 21816 ft | 401 kts | 292° |
| 2026-04-22 19:53 | 47.62015 | 18.11126 | 21497 ft | 399 kts | 291° |
| 2026-04-22 19:53 | 47.63117 | 18.05887 | 20869 ft | 396 kts | 291° |
| 2026-04-22 19:54 | 47.63933 | 18.01997 | 20437 ft | 393 kts | 291° |
| 2026-04-22 19:54 | 47.64830 | 17.98255 | 20282 ft | 376 kts | 300° |
| 2026-04-22 19:54 | 47.65970 | 17.94814 | 19944 ft | 367 kts | 301° |
| 2026-04-22 19:54 | 47.67092 | 17.91435 | 18934 ft | 367 kts | 301° |
| 2026-04-22 19:55 | 47.68234 | 17.88022 | 17805 ft | 370 kts | 301° |
| 2026-04-22 19:55 | 47.69372 | 17.84619 | 16846 ft | 366 kts | 301° |
| 2026-04-22 19:55 | 47.70490 | 17.81260 | 16062 ft | 358 kts | 300° |
| 2026-04-22 19:55 | 47.71590 | 17.77944 | 15653 ft | 359 kts | 300° |
| 2026-04-22 19:56 | 47.72693 | 17.74622 | 15222 ft | 357 kts | 300° |
| 2026-04-22 19:56 | 47.73789 | 17.71313 | 14786 ft | 357 kts | 300° |
| 2026-04-22 19:56 | 47.74874 | 17.68029 | 14365 ft | 352 kts | 300° |
| 2026-04-22 19:56 | 47.75947 | 17.64778 | 13938 ft | 349 kts | 300° |
| 2026-04-22 19:57 | 47.76995 | 17.61593 | 13496 ft | 346 kts | 300° |
| 2026-04-22 19:57 | 47.78046 | 17.58396 | 13083 ft | 343 kts | 300° |
| 2026-04-22 19:57 | 47.79095 | 17.55212 | 12666 ft | 341 kts | 300° |
| 2026-04-22 19:57 | 47.80132 | 17.52065 | 12253 ft | 338 kts | 300° |
| 2026-04-22 19:58 | 47.81161 | 17.48941 | 11870 ft | 334 kts | 300° |
| 2026-04-22 19:58 | 47.82172 | 17.45861 | 11455 ft | 330 kts | 299° |
| 2026-04-22 19:58 | 47.83185 | 17.42775 | 10881 ft | 332 kts | 299° |
| 2026-04-22 19:58 | 47.84193 | 17.39698 | 10432 ft | 328 kts | 299° |
| 2026-04-22 19:59 | 47.85183 | 17.36667 | 10031 ft | 324 kts | 299° |
| 2026-04-22 20:00 | 47.90583 | 17.20085 | 8204 ft | 293 kts | 299° |
| 2026-04-22 20:00 | 47.91449 | 17.17399 | 8075 ft | 282 kts | 299° |
| 2026-04-22 20:01 | 47.92283 | 17.14811 | 7935 ft | 272 kts | 300° |
| 2026-04-22 20:01 | 47.93092 | 17.12304 | 7608 ft | 265 kts | 300° |
| 2026-04-22 20:01 | 47.94147 | 17.09046 | 6853 ft | 262 kts | 300° |
| 2026-04-22 20:01 | 47.94680 | 17.07399 | 6473 ft | 260 kts | 300° |
| 2026-04-22 20:02 | 47.95444 | 17.05012 | 6184 ft | 247 kts | 297° |
| 2026-04-22 20:02 | 47.96090 | 17.02692 | 5812 ft | 238 kts | 298° |
| 2026-04-22 20:02 | 47.96784 | 17.00460 | 5419 ft | 236 kts | 300° |
| 2026-04-22 20:02 | 47.97509 | 16.98269 | 5146 ft | 234 kts | 301° |
| 2026-04-22 20:03 | 47.98227 | 16.96107 | 4927 ft | 230 kts | 301° |
| 2026-04-22 20:03 | 47.98929 | 16.93988 | 4627 ft | 228 kts | 301° |
| 2026-04-22 20:03 | 47.99627 | 16.91881 | 4406 ft | 223 kts | 301° |
| 2026-04-22 20:03 | 48.00289 | 16.89874 | 4290 ft | 214 kts | 301° |
| 2026-04-22 20:04 | 48.00938 | 16.87911 | 4178 ft | 206 kts | 301° |
| 2026-04-22 20:04 | 48.01553 | 16.86045 | 4107 ft | 195 kts | 302° |
| 2026-04-22 20:04 | 48.02135 | 16.84281 | 4047 ft | 183 kts | 302° |
| 2026-04-22 20:04 | 48.02690 | 16.82601 | 3964 ft | 179 kts | 302° |
| 2026-04-22 20:05 | 48.03237 | 16.80945 | 3873 ft | 177 kts | 302° |
| 2026-04-22 20:05 | 48.03783 | 16.79288 | 3768 ft | 178 kts | 302° |
| 2026-04-22 20:05 | 48.04326 | 16.77639 | 3581 ft | 176 kts | 302° |
| 2026-04-22 20:05 | 48.04865 | 16.75999 | 3345 ft | 175 kts | 302° |
| 2026-04-22 20:06 | 48.05401 | 16.74367 | 3114 ft | 174 kts | 302° |
| 2026-04-22 20:06 | 48.05934 | 16.72746 | 2881 ft | 173 kts | 302° |
| 2026-04-22 20:06 | 48.06461 | 16.71138 | 2645 ft | 171 kts | 303° |
| 2026-04-22 20:06 | 48.06980 | 16.69557 | 2414 ft | 167 kts | 303° |
| 2026-04-22 20:07 | 48.07478 | 16.68032 | 2187 ft | 158 kts | 303° |
| 2026-04-22 20:07 | 48.07944 | 16.66607 | 1978 ft | 146 kts | 304° |
| 2026-04-22 20:07 | 48.08371 | 16.65300 | 1809 ft | 136 kts | 303° |
| 2026-04-22 20:07 | 48.08782 | 16.64044 | 1612 ft | 132 kts | 303° |
| 2026-04-22 20:08 | 48.09179 | 16.62824 | 1379 ft | 130 kts | 301° |
| 2026-04-22 20:08 | 48.09589 | 16.61613 | 1269 ft | 131 kts | 300° |
| 2026-04-22 20:08 | 48.09997 | 16.60360 | 1062 ft | 135 kts | 298° |
| 2026-04-22 20:08 | 48.10399 | 16.59105 | 878 ft | 132 kts | 298° |
| 2026-04-22 20:09 | 48.10798 | 16.57879 | 695 ft | 131 kts | 297° |
| 2026-04-22 20:09 | 48.11184 | 16.56719 | 618 ft | 102 kts | 295° |
| 2026-04-22 20:09 | 48.11384 | 16.56098 | 619 ft | 49 kts | 296° |
| 2026-04-22 20:09 | 48.11525 | 16.55663 | 613 ft | 44 kts | 296° |
| 2026-04-22 20:10 | 48.11681 | 16.55311 | 611 ft | 37 kts | 318° |
| 2026-04-22 20:10 | 48.11834 | 16.55146 | 612 ft | 20 kts | 342° |
| 2026-04-22 20:10 | 48.11862 | 16.55146 | 609 ft | 0 kts | 6° |
| 2026-04-22 20:11 | 48.11868 | 16.55147 | 609 ft | 3 kts | 11° |
| 2026-04-22 20:11 | 48.11913 | 16.55177 | 616 ft | 10 kts | 26° |
| 2026-04-22 20:11 | 48.11944 | 16.55265 | 616 ft | 12 kts | 117° |
| 2026-04-22 20:11 | 48.11983 | 16.55327 | 617 ft | 10 kts | 27° |
| 2026-04-22 20:12 | 48.12049 | 16.55364 | 609 ft | 7 kts | 340° |
| 2026-04-22 20:12 | 48.12054 | 16.55317 | 614 ft | 4 kts | 292° |
| 2026-04-22 20:12 | 48.12060 | 16.55302 | 610 ft | 0 kts | 298° |